| time (UTC) | temp F | wind direction | speed MPH | gust MPH | rain 1hr in | rain 24hr in | rain mn in | humidity % | barometer mb |
| 20260510202501 | 57 | 306 | 2.0 | 3.0 | 0.00 | 0.00 | 0.00 | 33 | 1020.3 |
| 20260510202002 | 57 | 250 | 2.0 | 2.0 | 0.00 | 0.00 | 0.00 | 36 | 1020.5 |
| 20260510194502 | 56 | 249 | 1.0 | 2.0 | 0.00 | 0.00 | 0.00 | 33 | 1020.7 |
| 20260510194001 | 56 | 14 | 2.0 | 3.0 | 0.00 | 0.00 | 0.00 | 35 | 1020.8 |
| 20260510193502 | 56 | 322 | 0.0 | 0.0 | 0.00 | 0.00 | 0.00 | 35 | 1020.7 |
| 20260510193002 | 56 | 13 | 1.0 | 2.0 | 0.00 | 0.00 | 0.00 | 35 | 1021.0 |
| 20260510192501 | 56 | 291 | 2.0 | 3.0 | 0.00 | 0.00 | 0.00 | 36 | 1020.9 |
| 20260510191501 | 56 | 40 | 1.0 | 2.0 | 0.00 | 0.00 | 0.00 | 34 | 1020.9 |
| 20260510191002 | 56 | 1 | 1.0 | 2.0 | 0.00 | 0.00 | 0.00 | 33 | 1020.8 |
| 20260510185001 | 56 | 176 | 3.0 | 3.0 | 0.00 | 0.00 | 0.00 | 37 | 1020.7 |
| 20260510184502 | 57 | 238 | 3.0 | 4.0 | 0.00 | 0.00 | 0.00 | 38 | 1020.7 |
| 20260510184001 | 57 | 221 | 3.0 | 4.0 | 0.00 | 0.00 | 0.00 | 36 | 1020.6 |
| 20260510183502 | 58 | 340 | 1.0 | 2.0 | 0.00 | 0.00 | 0.00 | 34 | 1020.8 |
| 20260510183002 | 58 | 256 | 3.0 | 4.0 | 0.00 | 0.00 | 0.00 | 37 | 1020.6 |
| 20260510182501 | 57 | 297 | 4.0 | 5.0 | 0.00 | 0.00 | 0.00 | 35 | 1020.5 |
| 20260510182002 | 56 | 170 | 3.0 | 3.0 | 0.00 | 0.00 | 0.00 | 31 | 1020.4 |
| 20260510181501 | 56 | 349 | 0.0 | 0.0 | 0.00 | 0.00 | 0.00 | 34 | 1020.6 |
| 20260510180002 | 57 | 203 | 2.0 | 3.0 | 0.00 | 0.00 | 0.00 | 33 | 1020.4 |
| 20260510175002 | 58 | 228 | 2.0 | 3.0 | 0.00 | 0.00 | 0.00 | 33 | 1020.5 |
| 20260510174502 | 56 | 223 | 3.0 | 3.0 | 0.00 | 0.00 | 0.00 | 41 | 1020.3 |
| 20260510174001 | 56 | 300 | 2.0 | 3.0 | 0.00 | 0.00 | 0.00 | 42 | 1020.2 |
| 20260510173502 | 55 | 225 | 1.0 | 2.0 | 0.00 | 0.00 | 0.00 | 39 | 1020.3 |
| 20260510173001 | 55 | 335 | 0.0 | 0.0 | 0.00 | 0.00 | 0.00 | 35 | 1020.3 |
| 20260510172502 | 54 | 38 | 2.0 | 3.0 | 0.00 | 0.00 | 0.00 | 34 | 1020.6 |
| 20260510170502 | 55 | 282 | 1.0 | 2.0 | 0.00 | 0.00 | 0.00 | 36 | 1020.7 |
| 20260510170001 | 55 | 176 | 3.0 | 3.0 | 0.00 | 0.00 | 0.00 | 37 | 1020.6 |
| 20260510165001 | 55 | 28 | 3.0 | 4.0 | 0.00 | 0.00 | 0.00 | 33 | 1020.7 |
| 20260510164502 | 54 | 323 | 2.0 | 3.0 | 0.00 | 0.00 | 0.00 | 40 | 1020.5 |
| 20260510162002 | 54 | 242 | 2.0 | 2.0 | 0.00 | 0.00 | 0.00 | 36 | 1020.4 |
| 20260510155502 | 53 | 185 | 2.0 | 2.0 | 0.00 | 0.00 | 0.00 | 40 | 1020.5 |
| 20260510155001 | 53 | 13 | 1.0 | 3.0 | 0.00 | 0.00 | 0.00 | 42 | 1020.5 |
| 20260510154502 | 52 | 352 | 2.0 | 3.0 | 0.00 | 0.00 | 0.00 | 38 | 1020.4 |
| 20260510154001 | 53 | 3 | 3.0 | 4.0 | 0.00 | 0.00 | 0.00 | 37 | 1020.5 |
| 20260510153502 | 53 | 4 | 2.0 | 3.0 | 0.00 | 0.00 | 0.00 | 42 | 1020.3 |
| 20260510152501 | 52 | 349 | 1.0 | 2.0 | 0.00 | 0.00 | 0.00 | 41 | 1020.1 |
| 20260510152002 | 52 | 332 | 1.0 | 2.0 | 0.00 | 0.00 | 0.00 | 42 | 1020.2 |
| 20260510151002 | 52 | 196 | 2.0 | 3.0 | 0.00 | 0.00 | 0.00 | 38 | 1020.2 |
| 20260510150501 | 51 | 329 | 0.0 | 0.0 | 0.00 | 0.00 | 0.00 | 40 | 1020.2 |
| 20260510150002 | 51 | 8 | 0.0 | 0.0 | 0.00 | 0.00 | 0.00 | 43 | 1020.0 |
| 20260510145501 | 51 | 225 | 0.0 | 0.0 | 0.00 | 0.00 | 0.00 | 45 | 1020.2 |
| 20260510145002 | 52 | 323 | 2.0 | 3.0 | 0.00 | 0.00 | 0.00 | 41 | 1020.2 |
| 20260510143501 | 50 | 34 | 1.0 | 2.0 | 0.00 | 0.00 | 0.00 | 45 | 1020.0 |
| 20260510143002 | 50 | 320 | 1.0 | 2.0 | 0.00 | 0.00 | 0.00 | 44 | 1019.8 |
| 20260510142501 | 50 | 121 | 2.0 | 3.0 | 0.00 | 0.00 | 0.00 | 43 | 1019.9 |
| 20260510141502 | 50 | 4 | 1.0 | 2.0 | 0.00 | 0.00 | 0.00 | 42 | 1019.9 |
| 20260510141002 | 51 | 42 | 1.0 | 2.0 | 0.00 | 0.00 | 0.00 | 48 | 1019.7 |
| 20260510140502 | 50 | 288 | 0.0 | 0.0 | 0.00 | 0.00 | 0.00 | 46 | 1019.8 |
| 20260510135502 | 50 | 44 | 0.0 | 0.0 | 0.00 | 0.00 | 0.00 | 44 | 1019.7 |
| 20260510134502 | 49 | 357 | 0.0 | 0.0 | 0.00 | 0.00 | 0.00 | 46 | 1019.8 |
| 20260510134002 | 48 | 54 | 1.0 | 2.0 | 0.00 | 0.00 | 0.00 | 44 | 1019.7 |
| 20260510133502 | 48 | 64 | 1.0 | 2.0 | 0.00 | 0.00 | 0.00 | 44 | 1019.6 |
| 20260510130501 | 48 | 341 | 0.0 | 0.0 | 0.00 | 0.00 | 0.00 | 46 | 1019.2 |
| 20260510125002 | 48 | 337 | 0.0 | 0.0 | 0.00 | 0.00 | 0.00 | 48 | 1019.2 |
| 20260510124501 | 48 | 2 | 0.0 | 0.0 | 0.00 | 0.00 | 0.00 | 50 | 1019.2 |
| 20260510123502 | 47 | 334 | 0.0 | 0.0 | 0.00 | 0.00 | 0.00 | 55 | 1019.2 |
| 20260510123001 | 48 | 357 | 0.0 | 0.0 | 0.00 | 0.00 | 0.00 | 54 | 1018.9 |
| 20260510122502 | 47 | 346 | 0.0 | 0.0 | 0.00 | 0.00 | 0.00 | 53 | 1018.9 |
| 20260510122001 | 46 | 13 | 0.0 | 0.0 | 0.00 | 0.00 | 0.00 | 56 | 1018.8 |
| 20260510121502 | 46 | 332 | 1.0 | 2.0 | 0.00 | 0.00 | 0.00 | 59 | 1018.8 |
| 20260510121001 | 45 | 359 | 0.0 | 0.0 | 0.00 | 0.00 | 0.00 | 59 | 1018.7 |
| 20260510120502 | 45 | 326 | 0.0 | 0.0 | 0.00 | 0.00 | 0.00 | 59 | 1018.9 |
| 20260510115502 | 45 | 348 | 0.0 | 0.0 | 0.00 | 0.00 | 0.00 | 62 | 1018.5 |
| 20260510114502 | 43 | 318 | 0.0 | 0.0 | 0.00 | 0.00 | 0.00 | 64 | 1018.5 |
| 20260510114002 | 42 | 337 | 0.0 | 0.0 | 0.00 | 0.00 | 0.00 | 66 | 1018.5 |
| 20260510113501 | 41 | 25 | 0.0 | 0.0 | 0.00 | 0.00 | 0.00 | 70 | 1018.5 |
| 20260510113002 | 41 | 25 | 0.0 | 0.0 | 0.00 | 0.00 | 0.00 | 77 | 1018.2 |
| 20260510112501 | 39 | 25 | 0.0 | 0.0 | 0.00 | 0.00 | 0.00 | 81 | 1018.4 |
| 20260510111502 | 37 | 25 | 0.0 | 0.0 | 0.00 | 0.00 | 0.00 | 83 | 1018.3 |
| 20260510111002 | 36 | 24 | 0.0 | 0.0 | 0.00 | 0.00 | 0.00 | 83 | 1018.2 |
| 20260510110502 | 36 | 24 | 0.0 | 0.0 | 0.00 | 0.00 | 0.00 | 83 | 1018.2 |
| 20260510104501 | 36 | 24 | 0.0 | 0.0 | 0.00 | 0.00 | 0.00 | 82 | 1017.9 |
| 20260510103501 | 36 | 24 | 0.0 | 0.0 | 0.00 | 0.00 | 0.00 | 82 | 1017.7 |
| 20260510103002 | 36 | 24 | 0.0 | 0.0 | 0.00 | 0.00 | 0.00 | 81 | 1017.7 |
| 20260510102502 | 36 | 24 | 0.0 | 0.0 | 0.00 | 0.00 | 0.00 | 81 | 1017.8 |
| 20260510102002 | 36 | 24 | 0.0 | 0.0 | 0.00 | 0.00 | 0.00 | 81 | 1017.6 |
| 20260510101001 | 37 | 22 | 0.0 | 0.0 | 0.00 | 0.00 | 0.00 | 80 | 1017.2 |
| 20260510100502 | 37 | 10 | 0.0 | 0.0 | 0.00 | 0.00 | 0.00 | 81 | 1017.3 |
| 20260510100001 | 37 | 10 | 0.0 | 0.0 | 0.00 | 0.00 | 0.00 | 79 | 1017.4 |
| 20260510095502 | 37 | 10 | 0.0 | 0.0 | 0.00 | 0.00 | 0.00 | 79 | 1017.2 |
| 20260510095002 | 37 | 11 | 0.0 | 0.0 | 0.00 | 0.00 | 0.00 | 78 | 1017.3 |
| 20260510094501 | 38 | 10 | 0.0 | 0.0 | 0.00 | 0.00 | 0.00 | 79 | 1017.1 |
| 20260510094002 | 37 | 13 | 0.0 | 0.0 | 0.00 | 0.00 | 0.00 | 77 | 1017.0 |
| 20260510093501 | 38 | 349 | 0.0 | 0.0 | 0.00 | 0.00 | 0.00 | 79 | 1017.0 |
| 20260510092002 | 38 | 4 | 0.0 | 0.0 | 0.00 | 0.00 | 0.00 | 80 | 1016.7 |
| 20260510091502 | 38 | 3 | 0.0 | 0.0 | 0.00 | 0.00 | 0.00 | 78 | 1016.7 |
| 20260510091001 | 38 | 3 | 0.0 | 0.0 | 0.00 | 0.00 | 0.00 | 76 | 1016.8 |
| 20260510090502 | 38 | 3 | 0.0 | 0.0 | 0.00 | 0.00 | 0.00 | 76 | 1016.6 |
| 20260510090001 | 39 | 359 | 0.0 | 0.0 | 0.00 | 0.00 | 0.00 | 76 | 1016.5 |
| 20260510085502 | 39 | 18 | 0.0 | 0.0 | 0.00 | 0.00 | 0.00 | 74 | 1016.5 |
| 20260510083501 | 40 | 359 | 0.0 | 0.0 | 0.00 | 0.00 | 0.00 | 72 | 1016.0 |
| 20260510083002 | 40 | 0 | 0.0 | 0.0 | 0.00 | 0.00 | 0.00 | 71 | 1016.1 |
| 20260510082502 | 40 | 0 | 0.0 | 0.0 | 0.00 | 0.00 | 0.00 | 71 | 1015.9 |
| 20260510082002 | 41 | 0 | 0.0 | 0.0 | 0.00 | 0.00 | 0.00 | 72 | 1015.8 |
| 20260510081002 | 41 | 0 | 0.0 | 0.0 | 0.00 | 0.00 | 0.00 | 66 | 1015.9 |
| 20260510080502 | 41 | 359 | 0.0 | 0.0 | 0.00 | 0.00 | 0.00 | 67 | 1015.8 |
| 20260510080002 | 42 | 359 | 0.0 | 0.0 | 0.00 | 0.00 | 0.00 | 67 | 1015.7 |
| 20260510075001 | 42 | 357 | 0.0 | 0.0 | 0.00 | 0.00 | 0.00 | 66 | 1015.5 |
| 20260510074001 | 42 | 350 | 0.0 | 0.0 | 0.00 | 0.00 | 0.00 | 67 | 1015.4 |
| 20260510073502 | 42 | 350 | 0.0 | 0.0 | 0.00 | 0.00 | 0.00 | 66 | 1015.4 |
| 20260510073002 | 43 | 349 | 0.0 | 0.0 | 0.00 | 0.00 | 0.00 | 65 | 1015.2 |
| 20260510072502 | 43 | 345 | 0.0 | 0.0 | 0.00 | 0.00 | 0.00 | 65 | 1015.3 |
| 20260510071501 | 43 | 8 | 0.0 | 0.0 | 0.00 | 0.00 | 0.00 | 64 | 1015.1 |
| 20260510070501 | 44 | 14 | 0.0 | 0.0 | 0.00 | 0.00 | 0.00 | 63 | 1015.0 |
| 20260510070002 | 43 | 322 | 1.0 | 2.0 | 0.00 | 0.00 | 0.00 | 64 | 1014.7 |
| 20260510065502 | 43 | 2 | 0.0 | 0.0 | 0.00 | 0.00 | 0.00 | 66 | 1014.9 |
| 20260510065001 | 44 | 13 | 0.0 | 0.0 | 0.00 | 0.00 | 0.00 | 65 | 1014.7 |
| 20260510064502 | 44 | 355 | 0.0 | 0.0 | 0.00 | 0.00 | 0.00 | 65 | 1014.4 |
| 20260510064001 | 44 | 345 | 1.0 | 2.0 | 0.00 | 0.00 | 0.00 | 65 | 1014.3 |
| 20260510063502 | 44 | 53 | 1.0 | 2.0 | 0.00 | 0.00 | 0.00 | 64 | 1014.3 |
| 20260510063002 | 44 | 2 | 0.0 | 0.0 | 0.00 | 0.00 | 0.00 | 64 | 1014.3 |
| 20260510062501 | 44 | 9 | 0.0 | 0.0 | 0.00 | 0.00 | 0.00 | 64 | 1014.2 |
| 20260510062002 | 45 | 16 | 0.0 | 0.0 | 0.00 | 0.00 | 0.00 | 63 | 1014.3 |
| 20260510061501 | 45 | 16 | 0.0 | 0.0 | 0.00 | 0.00 | 0.00 | 63 | 1014.1 |
| 20260510060002 | 46 | 5 | 0.0 | 0.0 | 0.00 | 0.00 | 0.00 | 62 | 1013.9 |
| 20260510055501 | 46 | 16 | 0.0 | 0.0 | 0.00 | 0.00 | 0.00 | 62 | 1013.9 |
| 20260510055001 | 46 | 4 | 0.0 | 0.0 | 0.00 | 0.00 | 0.00 | 63 | 1014.0 |
| 20260510054502 | 46 | 2 | 0.0 | 0.0 | 0.00 | 0.00 | 0.00 | 63 | 1013.8 |
| 20260510054001 | 47 | 3 | 0.0 | 0.0 | 0.00 | 0.00 | 0.00 | 62 | 1013.8 |
| 20260510053502 | 47 | 21 | 0.0 | 0.0 | 0.00 | 0.00 | 0.00 | 62 | 1013.7 |
| 20260510053002 | 47 | 15 | 0.0 | 0.0 | 0.00 | 0.00 | 0.00 | 61 | 1013.6 |
| 20260510052502 | 47 | 9 | 0.0 | 0.0 | 0.00 | 0.00 | 0.00 | 60 | 1013.7 |
| 20260510051501 | 48 | 13 | 0.0 | 0.0 | 0.00 | 0.00 | 0.00 | 60 | 1013.5 |
| 20260510051002 | 48 | 12 | 0.0 | 0.0 | 0.00 | 0.00 | 0.00 | 62 | 1013.4 |
| 20260510045001 | 47 | 351 | 0.0 | 0.0 | 0.00 | 0.00 | 0.00 | 65 | 1013.1 |
| 20260510044502 | 47 | 23 | 0.0 | 0.0 | 0.00 | 0.00 | 0.00 | 65 | 1012.9 |
| 20260510044001 | 46 | 22 | 0.0 | 0.0 | 0.00 | 0.00 | 0.00 | 68 | 1012.9 |
| 20260510043502 | 46 | 16 | 0.0 | 0.0 | 0.00 | 0.00 | 0.00 | 74 | 1012.6 |
| 20260510042502 | 46 | 16 | 0.0 | 0.0 | 0.00 | 0.00 | 0.00 | 73 | 1012.6 |
| 20260510042001 | 46 | 16 | 0.0 | 0.0 | 0.00 | 0.00 | 0.00 | 73 | 1012.4 |
| 20260510041502 | 47 | 16 | 0.0 | 0.0 | 0.00 | 0.00 | 0.00 | 73 | 1012.3 |
| 20260510040502 | 48 | 16 | 0.0 | 0.0 | 0.00 | 0.00 | 0.00 | 72 | 1012.2 |
| 20260510035002 | 49 | 16 | 0.0 | 0.0 | 0.00 | 0.00 | 0.00 | 68 | 1012.0 |
| 20260510033001 | 50 | 27 | 0.0 | 0.0 | 0.00 | 0.00 | 0.00 | 64 | 1011.7 |
| 20260510031711 | 52 | 27 | 0.0 | 0.0 | 0.00 | 0.00 | 0.00 | 60 | 1011.6 |
| 20260510031002 | 52 | 10 | 0.0 | 0.0 | 0.00 | 0.00 | 0.00 | 59 | 1011.3 |
| 20260510025501 | 54 | 38 | 0.0 | 0.0 | 0.00 | 0.00 | 0.00 | 54 | 1011.3 |
| 20260510024003 | 56 | 43 | 0.0 | 0.0 | 0.00 | 0.00 | 0.00 | 48 | 1010.9 |
| 20260510023502 | 56 | 344 | 1.0 | 2.0 | 0.00 | 0.00 | 0.00 | 49 | 1010.9 |
| 20260510023001 | 56 | 10 | 0.0 | 0.0 | 0.00 | 0.00 | 0.00 | 48 | 1010.7 |
| 20260510022502 | 57 | 38 | 2.0 | 4.0 | 0.00 | 0.00 | 0.00 | 48 | 1010.8 |
| 20260510021001 | 57 | 355 | 0.0 | 0.0 | 0.00 | 0.00 | 0.00 | 49 | 1010.3 |
| 20260510020502 | 57 | 145 | 2.0 | 3.0 | 0.00 | 0.00 | 0.00 | 47 | 1010.4 |
| 20260510020002 | 57 | 343 | 0.0 | 0.0 | 0.00 | 0.00 | 0.00 | 48 | 1010.1 |
| 20260510015002 | 58 | 327 | 1.0 | 2.0 | 0.00 | 0.00 | 0.00 | 48 | 1009.8 |
| 20260510014002 | 58 | 273 | 2.0 | 2.0 | 0.00 | 0.00 | 0.00 | 47 | 1009.5 |
| 20260510013501 | 58 | 300 | 1.0 | 2.0 | 0.00 | 0.00 | 0.00 | 46 | 1009.4 |
| 20260510013002 | 58 | 341 | 0.0 | 0.0 | 0.00 | 0.00 | 0.00 | 46 | 1009.4 |
| 20260510012502 | 58 | 15 | 1.0 | 2.0 | 0.00 | 0.00 | 0.00 | 45 | 1008.9 |
| 20260510012002 | 58 | 46 | 1.0 | 2.0 | 0.00 | 0.00 | 0.00 | 45 | 1008.9 |
| 20260510011001 | 59 | 318 | 1.0 | 2.0 | 0.00 | 0.00 | 0.00 | 45 | 1008.8 |
| 20260510010502 | 59 | 287 | 2.0 | 3.0 | 0.00 | 0.00 | 0.00 | 44 | 1008.7 |
| 20260510010001 | 60 | 25 | 0.0 | 0.0 | 0.00 | 0.00 | 0.00 | 43 | 1008.3 |
| 20260510005001 | 61 | 211 | 2.0 | 3.0 | 0.00 | 0.00 | 0.00 | 41 | 1008.1 |
| 20260510004002 | 62 | 322 | 2.0 | 2.0 | 0.00 | 0.00 | 0.00 | 43 | 1007.7 |
| 20260510002501 | 62 | 314 | 1.0 | 2.0 | 0.00 | 0.00 | 0.00 | 44 | 1007.4 |
| 20260510002002 | 62 | 357 | 1.0 | 2.0 | 0.00 | 0.00 | 0.00 | 44 | 1007.3 |
| 20260510001501 | 62 | 216 | 1.0 | 2.0 | 0.00 | 0.00 | 0.00 | 44 | 1007.1 |
| 20260510001002 | 62 | 331 | 0.0 | 0.0 | 0.00 | 0.00 | 0.00 | 45 | 1007.1 |
| 20260510000501 | 62 | 209 | 2.0 | 3.0 | 0.00 | 0.00 | 0.00 | 45 | 1007.2 |
| 20260510000002 | 62 | 333 | 2.0 | 2.0 | 0.00 | 0.00 | 0.00 | 44 | 1006.9 |
| 20260509235002 | 63 | 198 | 2.0 | 3.0 | 0.00 | 0.00 | 0.00 | 42 | 1006.8 |
| 20260509234502 | 63 | 304 | 0.0 | 0.0 | 0.00 | 0.00 | 0.00 | 43 | 1006.8 |
| 20260509234001 | 63 | 342 | 0.0 | 0.0 | 0.00 | 0.00 | 0.00 | 45 | 1006.6 |
| 20260509233001 | 63 | 343 | 0.0 | 0.0 | 0.00 | 0.00 | 0.00 | 42 | 1006.6 |
| 20260509232502 | 63 | 340 | 0.0 | 0.0 | 0.00 | 0.00 | 0.00 | 43 | 1006.7 |
| 20260509232001 | 64 | 204 | 2.0 | 3.0 | 0.00 | 0.00 | 0.00 | 40 | 1006.6 |
| 20260509231502 | 64 | 328 | 1.0 | 2.0 | 0.00 | 0.00 | 0.00 | 42 | 1006.5 |
| 20260509231001 | 64 | 347 | 1.0 | 2.0 | 0.00 | 0.00 | 0.00 | 43 | 1006.6 |
| 20260509230501 | 64 | 250 | 1.0 | 2.0 | 0.00 | 0.00 | 0.00 | 43 | 1006.4 |
| 20260509230002 | 65 | 265 | 1.0 | 3.0 | 0.00 | 0.00 | 0.00 | 42 | 1006.2 |
| 20260509225002 | 64 | 5 | 2.0 | 3.0 | 0.00 | 0.00 | 0.00 | 41 | 1006.1 |
| 20260509224501 | 64 | 206 | 2.0 | 2.0 | 0.00 | 0.00 | 0.00 | 41 | 1006.1 |
| 20260509223502 | 65 | 306 | 2.0 | 3.0 | 0.00 | 0.00 | 0.00 | 42 | 1005.8 |
| 20260509222502 | 66 | 287 | 1.0 | 2.0 | 0.00 | 0.00 | 0.00 | 40 | 1006.0 |
| 20260509221502 | 67 | 234 | 3.0 | 5.0 | 0.00 | 0.00 | 0.00 | 40 | 1005.8 |
| 20260509221002 | 67 | 28 | 3.0 | 4.0 | 0.00 | 0.00 | 0.00 | 40 | 1005.7 |
| 20260509220501 | 67 | 300 | 3.0 | 4.0 | 0.00 | 0.00 | 0.00 | 40 | 1005.4 |
| 20260509220002 | 67 | 300 | 2.0 | 3.0 | 0.00 | 0.00 | 0.00 | 40 | 1005.4 |
| 20260509215002 | 68 | 290 | 2.0 | 3.0 | 0.00 | 0.00 | 0.00 | 39 | 1005.2 |
| 20260509214501 | 67 | 315 | 1.0 | 2.0 | 0.00 | 0.00 | 0.00 | 38 | 1005.2 |
| 20260509214002 | 67 | 283 | 2.0 | 5.0 | 0.00 | 0.00 | 0.00 | 38 | 1005.1 |
| 20260509213002 | 68 | 200 | 4.0 | 6.0 | 0.00 | 0.00 | 0.00 | 39 | 1004.9 |
| 20260509212502 | 67 | 241 | 3.0 | 3.0 | 0.00 | 0.00 | 0.00 | 39 | 1005.1 |
| 20260509212001 | 67 | 230 | 3.0 | 5.0 | 0.00 | 0.00 | 0.00 | 42 | 1005.0 |
| 20260509211502 | 66 | 211 | 3.0 | 4.0 | 0.00 | 0.00 | 0.00 | 42 | 1005.0 |
| 20260509211001 | 65 | 13 | 1.0 | 2.0 | 0.00 | 0.00 | 0.00 | 42 | 1005.0 |
| 20260509210502 | 66 | 213 | 3.0 | 4.0 | 0.00 | 0.00 | 0.00 | 41 | 1005.0 |
| 20260509210001 | 67 | 222 | 5.0 | 6.0 | 0.00 | 0.00 | 0.00 | 40 | 1005.2 |
| 20260509205502 | 67 | 112 | 3.0 | 5.0 | 0.00 | 0.00 | 0.00 | 42 | 1005.1 |
| 20260509205002 | 66 | 290 | 3.0 | 4.0 | 0.00 | 0.00 | 0.00 | 40 | 1004.9 |
| 20260509204502 | 67 | 210 | 4.0 | 4.0 | 0.00 | 0.00 | 0.00 | 41 | 1004.9 |